sensor_id;sensor_type;location;lat;lon;timestamp;temperature;humidity
21487;DHT22;10905;50.822;4.336;2023-12-14T00:02:00;9.60;99.90
21487;DHT22;10905;50.822;4.336;2023-12-14T00:04:25;9.50;99.90
21487;DHT22;10905;50.822;4.336;2023-12-14T00:06:51;9.50;99.90
21487;DHT22;10905;50.822;4.336;2023-12-14T00:09:17;9.40;99.90
21487;DHT22;10905;50.822;4.336;2023-12-14T00:11:42;9.40;99.90
21487;DHT22;10905;50.822;4.336;2023-12-14T00:14:08;9.40;99.90
21487;DHT22;10905;50.822;4.336;2023-12-14T00:16:34;9.40;99.90
21487;DHT22;10905;50.822;4.336;2023-12-14T00:18:59;9.50;99.90
21487;DHT22;10905;50.822;4.336;2023-12-14T00:21:25;9.50;99.90
21487;DHT22;10905;50.822;4.336;2023-12-14T00:23:50;9.60;99.90
21487;DHT22;10905;50.822;4.336;2023-12-14T00:26:16;9.60;99.90
21487;DHT22;10905;50.822;4.336;2023-12-14T00:28:43;9.50;99.90
21487;DHT22;10905;50.822;4.336;2023-12-14T00:31:08;9.50;99.90
21487;DHT22;10905;50.822;4.336;2023-12-14T00:33:34;9.50;99.90
21487;DHT22;10905;50.822;4.336;2023-12-14T00:36:00;9.50;99.90
21487;DHT22;10905;50.822;4.336;2023-12-14T00:38:25;9.60;99.90
21487;DHT22;10905;50.822;4.336;2023-12-14T00:40:51;9.70;99.90
21487;DHT22;10905;50.822;4.336;2023-12-14T00:43:16;9.70;99.90
21487;DHT22;10905;50.822;4.336;2023-12-14T00:45:42;9.70;99.90
21487;DHT22;10905;50.822;4.336;2023-12-14T00:48:08;9.80;99.90
21487;DHT22;10905;50.822;4.336;2023-12-14T00:50:33;9.80;99.90
21487;DHT22;10905;50.822;4.336;2023-12-14T00:52:59;9.90;99.90
21487;DHT22;10905;50.822;4.336;2023-12-14T00:55:25;9.90;99.90
21487;DHT22;10905;50.822;4.336;2023-12-14T00:57:50;9.90;99.90
21487;DHT22;10905;50.822;4.336;2023-12-14T01:00:16;9.90;99.90
21487;DHT22;10905;50.822;4.336;2023-12-14T01:02:42;9.90;99.90
21487;DHT22;10905;50.822;4.336;2023-12-14T01:05:08;9.70;99.90
21487;DHT22;10905;50.822;4.336;2023-12-14T01:07:35;9.70;99.90
21487;DHT22;10905;50.822;4.336;2023-12-14T01:10:01;9.50;99.90
21487;DHT22;10905;50.822;4.336;2023-12-14T01:12:27;9.60;99.90
21487;DHT22;10905;50.822;4.336;2023-12-14T01:14:52;9.70;99.90
21487;DHT22;10905;50.822;4.336;2023-12-14T01:17:18;9.70;99.90
21487;DHT22;10905;50.822;4.336;2023-12-14T01:19:44;9.70;99.90
21487;DHT22;10905;50.822;4.336;2023-12-14T01:22:10;9.70;99.90
21487;DHT22;10905;50.822;4.336;2023-12-14T01:24:35;9.70;99.90
21487;DHT22;10905;50.822;4.336;2023-12-14T01:27:01;9.70;99.90
21487;DHT22;10905;50.822;4.336;2023-12-14T01:29:27;9.80;99.90
21487;DHT22;10905;50.822;4.336;2023-12-14T01:31:52;9.90;99.90
21487;DHT22;10905;50.822;4.336;2023-12-14T01:34:18;9.80;99.90
21487;DHT22;10905;50.822;4.336;2023-12-14T01:36:43;9.70;99.90
21487;DHT22;10905;50.822;4.336;2023-12-14T01:39:09;9.70;99.90
21487;DHT22;10905;50.822;4.336;2023-12-14T01:41:35;9.60;99.90
21487;DHT22;10905;50.822;4.336;2023-12-14T01:44:00;9.60;99.90
21487;DHT22;10905;50.822;4.336;2023-12-14T01:46:26;9.70;99.90
21487;DHT22;10905;50.822;4.336;2023-12-14T01:48:51;9.60;99.90
21487;DHT22;10905;50.822;4.336;2023-12-14T01:51:18;9.70;99.90
21487;DHT22;10905;50.822;4.336;2023-12-14T01:53:44;9.70;99.90
21487;DHT22;10905;50.822;4.336;2023-12-14T01:56:10;9.60;99.90
21487;DHT22;10905;50.822;4.336;2023-12-14T01:58:36;9.60;99.90
21487;DHT22;10905;50.822;4.336;2023-12-14T02:01:26;9.50;99.90
21487;DHT22;10905;50.822;4.336;2023-12-14T02:03:54;9.50;99.90
21487;DHT22;10905;50.822;4.336;2023-12-14T02:06:20;9.50;99.90
21487;DHT22;10905;50.822;4.336;2023-12-14T02:08:46;9.50;99.90
21487;DHT22;10905;50.822;4.336;2023-12-14T02:11:12;9.50;99.90
21487;DHT22;10905;50.822;4.336;2023-12-14T02:13:37;9.50;99.90
21487;DHT22;10905;50.822;4.336;2023-12-14T02:16:03;9.50;99.90
21487;DHT22;10905;50.822;4.336;2023-12-14T02:18:29;9.50;99.90
21487;DHT22;10905;50.822;4.336;2023-12-14T02:20:55;9.50;99.90
21487;DHT22;10905;50.822;4.336;2023-12-14T02:23:20;9.40;99.90
21487;DHT22;10905;50.822;4.336;2023-12-14T02:25:46;9.30;99.90
21487;DHT22;10905;50.822;4.336;2023-12-14T02:28:12;9.30;99.90
21487;DHT22;10905;50.822;4.336;2023-12-14T02:30:38;9.40;99.90
21487;DHT22;10905;50.822;4.336;2023-12-14T02:33:03;9.40;99.90
21487;DHT22;10905;50.822;4.336;2023-12-14T02:35:29;9.40;99.90
21487;DHT22;10905;50.822;4.336;2023-12-14T02:37:54;9.30;99.90
21487;DHT22;10905;50.822;4.336;2023-12-14T02:40:20;9.40;99.90
21487;DHT22;10905;50.822;4.336;2023-12-14T02:42:46;9.40;99.90
21487;DHT22;10905;50.822;4.336;2023-12-14T02:45:12;9.30;99.90
21487;DHT22;10905;50.822;4.336;2023-12-14T02:47:37;9.20;99.90
21487;DHT22;10905;50.822;4.336;2023-12-14T02:50:03;9.00;99.90
21487;DHT22;10905;50.822;4.336;2023-12-14T02:52:29;8.90;99.90
21487;DHT22;10905;50.822;4.336;2023-12-14T02:54:55;8.90;99.90
21487;DHT22;10905;50.822;4.336;2023-12-14T02:57:20;8.90;99.90
21487;DHT22;10905;50.822;4.336;2023-12-14T02:59:46;8.80;99.90
21487;DHT22;10905;50.822;4.336;2023-12-14T03:02:12;8.80;99.90
21487;DHT22;10905;50.822;4.336;2023-12-14T03:04:38;8.80;99.90
21487;DHT22;10905;50.822;4.336;2023-12-14T03:07:05;8.80;99.90
21487;DHT22;10905;50.822;4.336;2023-12-14T03:09:30;8.80;99.90
21487;DHT22;10905;50.822;4.336;2023-12-14T03:11:56;8.80;99.90
21487;DHT22;10905;50.822;4.336;2023-12-14T03:14:22;8.80;99.90
21487;DHT22;10905;50.822;4.336;2023-12-14T03:16:48;8.90;99.90
21487;DHT22;10905;50.822;4.336;2023-12-14T03:19:14;8.90;99.90
21487;DHT22;10905;50.822;4.336;2023-12-14T03:21:41;8.90;99.90
21487;DHT22;10905;50.822;4.336;2023-12-14T03:24:07;8.80;99.90
21487;DHT22;10905;50.822;4.336;2023-12-14T03:26:33;8.80;99.90
21487;DHT22;10905;50.822;4.336;2023-12-14T03:28:58;8.90;99.90
21487;DHT22;10905;50.822;4.336;2023-12-14T03:31:24;8.90;99.90
21487;DHT22;10905;50.822;4.336;2023-12-14T03:33:50;8.90;99.90
21487;DHT22;10905;50.822;4.336;2023-12-14T03:36:15;8.70;99.90
21487;DHT22;10905;50.822;4.336;2023-12-14T03:38:41;8.60;99.90
21487;DHT22;10905;50.822;4.336;2023-12-14T03:41:07;8.40;99.90
21487;DHT22;10905;50.822;4.336;2023-12-14T03:43:33;8.30;99.90
21487;DHT22;10905;50.822;4.336;2023-12-14T03:45:58;8.20;99.90
21487;DHT22;10905;50.822;4.336;2023-12-14T03:48:24;8.20;99.90
21487;DHT22;10905;50.822;4.336;2023-12-14T03:50:49;8.10;99.90
21487;DHT22;10905;50.822;4.336;2023-12-14T03:53:15;8.10;99.90
21487;DHT22;10905;50.822;4.336;2023-12-14T03:55:41;8.00;99.90
21487;DHT22;10905;50.822;4.336;2023-12-14T03:58:06;8.00;99.90
21487;DHT22;10905;50.822;4.336;2023-12-14T04:00:32;7.90;99.90
21487;DHT22;10905;50.822;4.336;2023-12-14T04:02:58;7.90;99.90
21487;DHT22;10905;50.822;4.336;2023-12-14T04:05:23;7.90;99.90
21487;DHT22;10905;50.822;4.336;2023-12-14T04:07:49;8.00;99.90
21487;DHT22;10905;50.822;4.336;2023-12-14T04:10:15;8.00;99.90
21487;DHT22;10905;50.822;4.336;2023-12-14T04:12:41;8.10;99.90
21487;DHT22;10905;50.822;4.336;2023-12-14T04:15:08;8.00;99.90
21487;DHT22;10905;50.822;4.336;2023-12-14T04:17:34;7.90;99.90
21487;DHT22;10905;50.822;4.336;2023-12-14T04:20:00;7.90;99.90
21487;DHT22;10905;50.822;4.336;2023-12-14T04:22:26;7.90;99.90
21487;DHT22;10905;50.822;4.336;2023-12-14T04:24:52;7.80;99.90
21487;DHT22;10905;50.822;4.336;2023-12-14T04:27:18;7.80;99.90
21487;DHT22;10905;50.822;4.336;2023-12-14T04:29:43;7.80;99.90
21487;DHT22;10905;50.822;4.336;2023-12-14T04:32:09;7.80;99.90
21487;DHT22;10905;50.822;4.336;2023-12-14T04:34:35;7.80;99.90
21487;DHT22;10905;50.822;4.336;2023-12-14T04:37:01;7.80;99.90
21487;DHT22;10905;50.822;4.336;2023-12-14T04:39:27;7.80;99.90
21487;DHT22;10905;50.822;4.336;2023-12-14T04:41:53;7.90;99.90
21487;DHT22;10905;50.822;4.336;2023-12-14T04:44:19;7.90;99.90
21487;DHT22;10905;50.822;4.336;2023-12-14T04:46:47;7.80;99.90
21487;DHT22;10905;50.822;4.336;2023-12-14T04:49:12;7.70;99.90
21487;DHT22;10905;50.822;4.336;2023-12-14T04:51:38;7.80;99.90
21487;DHT22;10905;50.822;4.336;2023-12-14T04:54:04;7.60;99.90
21487;DHT22;10905;50.822;4.336;2023-12-14T04:56:29;7.70;99.90
21487;DHT22;10905;50.822;4.336;2023-12-14T04:58:55;7.70;99.90
21487;DHT22;10905;50.822;4.336;2023-12-14T05:01:21;7.70;99.90
21487;DHT22;10905;50.822;4.336;2023-12-14T05:03:47;7.90;99.90
21487;DHT22;10905;50.822;4.336;2023-12-14T05:06:12;7.90;99.90
21487;DHT22;10905;50.822;4.336;2023-12-14T05:08:38;7.80;99.90
21487;DHT22;10905;50.822;4.336;2023-12-14T05:11:04;7.80;99.90
21487;DHT22;10905;50.822;4.336;2023-12-14T05:13:30;7.80;99.90
21487;DHT22;10905;50.822;4.336;2023-12-14T05:15:55;7.90;99.90
21487;DHT22;10905;50.822;4.336;2023-12-14T05:18:23;7.80;99.90
21487;DHT22;10905;50.822;4.336;2023-12-14T05:20:50;7.90;99.90
21487;DHT22;10905;50.822;4.336;2023-12-14T05:23:15;7.80;99.90
21487;DHT22;10905;50.822;4.336;2023-12-14T05:25:41;7.80;99.90
21487;DHT22;10905;50.822;4.336;2023-12-14T05:28:07;7.80;99.90
21487;DHT22;10905;50.822;4.336;2023-12-14T05:30:32;7.70;99.90
21487;DHT22;10905;50.822;4.336;2023-12-14T05:32:58;7.60;99.90
21487;DHT22;10905;50.822;4.336;2023-12-14T05:35:23;7.70;99.90
21487;DHT22;10905;50.822;4.336;2023-12-14T05:37:49;7.70;99.90
21487;DHT22;10905;50.822;4.336;2023-12-14T05:40:15;7.70;99.90
21487;DHT22;10905;50.822;4.336;2023-12-14T05:42:40;7.70;99.90
21487;DHT22;10905;50.822;4.336;2023-12-14T05:45:07;7.70;99.90
21487;DHT22;10905;50.822;4.336;2023-12-14T05:47:32;7.80;99.90
21487;DHT22;10905;50.822;4.336;2023-12-14T05:50:03;7.80;99.90
21487;DHT22;10905;50.822;4.336;2023-12-14T05:52:28;7.80;99.90
21487;DHT22;10905;50.822;4.336;2023-12-14T05:54:54;7.70;99.90
21487;DHT22;10905;50.822;4.336;2023-12-14T05:57:19;7.60;99.90
21487;DHT22;10905;50.822;4.336;2023-12-14T05:59:45;7.60;99.90
21487;DHT22;10905;50.822;4.336;2023-12-14T06:02:11;7.60;99.90
21487;DHT22;10905;50.822;4.336;2023-12-14T06:04:36;7.60;99.90
21487;DHT22;10905;50.822;4.336;2023-12-14T06:07:02;7.60;99.90
21487;DHT22;10905;50.822;4.336;2023-12-14T06:09:28;7.60;99.90
21487;DHT22;10905;50.822;4.336;2023-12-14T06:12:01;7.60;99.90
21487;DHT22;10905;50.822;4.336;2023-12-14T06:14:27;7.60;99.90
21487;DHT22;10905;50.822;4.336;2023-12-14T06:16:52;7.60;99.90
21487;DHT22;10905;50.822;4.336;2023-12-14T06:19:18;7.60;99.90
21487;DHT22;10905;50.822;4.336;2023-12-14T06:21:44;7.70;99.90
21487;DHT22;10905;50.822;4.336;2023-12-14T06:24:09;7.60;99.90
21487;DHT22;10905;50.822;4.336;2023-12-14T06:26:35;7.60;99.90
21487;DHT22;10905;50.822;4.336;2023-12-14T06:29:05;7.70;99.90
21487;DHT22;10905;50.822;4.336;2023-12-14T06:31:31;7.70;99.90
21487;DHT22;10905;50.822;4.336;2023-12-14T06:33:56;7.60;99.90
21487;DHT22;10905;50.822;4.336;2023-12-14T06:36:23;7.50;99.90
21487;DHT22;10905;50.822;4.336;2023-12-14T06:38:52;7.60;99.90
21487;DHT22;10905;50.822;4.336;2023-12-14T06:41:24;7.50;99.90
21487;DHT22;10905;50.822;4.336;2023-12-14T06:43:50;7.50;99.90
21487;DHT22;10905;50.822;4.336;2023-12-14T06:46:16;7.60;99.90
21487;DHT22;10905;50.822;4.336;2023-12-14T06:48:42;7.60;99.90
21487;DHT22;10905;50.822;4.336;2023-12-14T06:51:08;7.80;99.90
21487;DHT22;10905;50.822;4.336;2023-12-14T06:53:34;7.70;99.90
21487;DHT22;10905;50.822;4.336;2023-12-14T06:56:00;7.80;99.90
21487;DHT22;10905;50.822;4.336;2023-12-14T06:58:26;7.70;99.90
21487;DHT22;10905;50.822;4.336;2023-12-14T07:00:52;7.70;99.90
21487;DHT22;10905;50.822;4.336;2023-12-14T07:03:18;7.80;99.90
21487;DHT22;10905;50.822;4.336;2023-12-14T07:05:43;7.70;99.90
21487;DHT22;10905;50.822;4.336;2023-12-14T07:08:09;7.60;99.90
21487;DHT22;10905;50.822;4.336;2023-12-14T07:10:35;7.40;99.90
21487;DHT22;10905;50.822;4.336;2023-12-14T07:13:00;7.20;99.90
21487;DHT22;10905;50.822;4.336;2023-12-14T07:15:26;7.10;99.90
21487;DHT22;10905;50.822;4.336;2023-12-14T07:17:51;7.00;99.90
21487;DHT22;10905;50.822;4.336;2023-12-14T07:20:17;7.00;99.90
21487;DHT22;10905;50.822;4.336;2023-12-14T07:22:43;7.00;99.90
21487;DHT22;10905;50.822;4.336;2023-12-14T07:25:08;6.90;99.90
21487;DHT22;10905;50.822;4.336;2023-12-14T07:27:34;7.00;99.90
21487;DHT22;10905;50.822;4.336;2023-12-14T07:30:00;6.90;99.90
21487;DHT22;10905;50.822;4.336;2023-12-14T07:32:25;6.90;99.90
21487;DHT22;10905;50.822;4.336;2023-12-14T07:34:52;7.00;99.90
21487;DHT22;10905;50.822;4.336;2023-12-14T07:37:18;7.10;99.90
21487;DHT22;10905;50.822;4.336;2023-12-14T07:39:43;7.30;99.90
21487;DHT22;10905;50.822;4.336;2023-12-14T07:42:09;7.40;99.90
21487;DHT22;10905;50.822;4.336;2023-12-14T07:44:35;7.40;99.90
21487;DHT22;10905;50.822;4.336;2023-12-14T07:47:01;7.50;99.90
21487;DHT22;10905;50.822;4.336;2023-12-14T07:49:27;7.40;99.90
21487;DHT22;10905;50.822;4.336;2023-12-14T07:51:53;7.50;99.90
21487;DHT22;10905;50.822;4.336;2023-12-14T07:54:19;7.70;99.90
21487;DHT22;10905;50.822;4.336;2023-12-14T07:56:44;7.80;99.90
21487;DHT22;10905;50.822;4.336;2023-12-14T07:59:11;7.70;99.90
21487;DHT22;10905;50.822;4.336;2023-12-14T08:01:37;7.60;99.90
21487;DHT22;10905;50.822;4.336;2023-12-14T08:04:03;7.60;99.90
21487;DHT22;10905;50.822;4.336;2023-12-14T08:06:29;7.50;99.90
21487;DHT22;10905;50.822;4.336;2023-12-14T08:08:55;7.60;99.90
21487;DHT22;10905;50.822;4.336;2023-12-14T08:11:24;7.70;99.90
21487;DHT22;10905;50.822;4.336;2023-12-14T08:13:49;7.80;99.90
21487;DHT22;10905;50.822;4.336;2023-12-14T08:16:15;7.80;99.90
21487;DHT22;10905;50.822;4.336;2023-12-14T08:18:43;7.90;99.90
21487;DHT22;10905;50.822;4.336;2023-12-14T08:21:11;8.00;99.90
21487;DHT22;10905;50.822;4.336;2023-12-14T08:23:37;8.00;99.90
21487;DHT22;10905;50.822;4.336;2023-12-14T08:26:03;8.10;99.90
21487;DHT22;10905;50.822;4.336;2023-12-14T08:28:28;8.00;99.90
21487;DHT22;10905;50.822;4.336;2023-12-14T08:30:55;8.10;99.90
21487;DHT22;10905;50.822;4.336;2023-12-14T08:33:21;8.20;99.90
21487;DHT22;10905;50.822;4.336;2023-12-14T08:35:46;8.40;99.90
21487;DHT22;10905;50.822;4.336;2023-12-14T08:38:12;8.50;99.90
21487;DHT22;10905;50.822;4.336;2023-12-14T08:40:38;8.40;99.90
21487;DHT22;10905;50.822;4.336;2023-12-14T08:43:04;8.10;99.90
21487;DHT22;10905;50.822;4.336;2023-12-14T08:45:30;8.10;99.90
21487;DHT22;10905;50.822;4.336;2023-12-14T08:47:56;8.10;99.90
21487;DHT22;10905;50.822;4.336;2023-12-14T08:50:21;8.10;99.90
21487;DHT22;10905;50.822;4.336;2023-12-14T08:52:48;8.10;99.90
21487;DHT22;10905;50.822;4.336;2023-12-14T08:55:13;8.20;99.90
21487;DHT22;10905;50.822;4.336;2023-12-14T08:57:39;8.30;99.90
21487;DHT22;10905;50.822;4.336;2023-12-14T09:00:06;8.30;99.90
21487;DHT22;10905;50.822;4.336;2023-12-14T09:02:32;8.00;99.90
21487;DHT22;10905;50.822;4.336;2023-12-14T09:04:58;8.10;99.90
21487;DHT22;10905;50.822;4.336;2023-12-14T09:07:24;8.10;99.90
21487;DHT22;10905;50.822;4.336;2023-12-14T09:09:50;8.10;99.90
21487;DHT22;10905;50.822;4.336;2023-12-14T09:12:15;8.20;99.90
21487;DHT22;10905;50.822;4.336;2023-12-14T09:14:41;8.20;99.90
21487;DHT22;10905;50.822;4.336;2023-12-14T09:17:07;8.20;99.90
21487;DHT22;10905;50.822;4.336;2023-12-14T09:19:33;8.20;99.90
21487;DHT22;10905;50.822;4.336;2023-12-14T09:21:58;8.20;99.90
21487;DHT22;10905;50.822;4.336;2023-12-14T09:24:24;8.20;99.90
21487;DHT22;10905;50.822;4.336;2023-12-14T09:26:50;8.20;99.90
21487;DHT22;10905;50.822;4.336;2023-12-14T09:29:16;8.20;99.90
21487;DHT22;10905;50.822;4.336;2023-12-14T09:31:42;8.30;99.90
21487;DHT22;10905;50.822;4.336;2023-12-14T09:34:09;8.40;99.90
21487;DHT22;10905;50.822;4.336;2023-12-14T09:36:35;8.50;99.90
21487;DHT22;10905;50.822;4.336;2023-12-14T09:39:01;8.60;99.90
21487;DHT22;10905;50.822;4.336;2023-12-14T09:41:26;8.60;99.90
21487;DHT22;10905;50.822;4.336;2023-12-14T09:43:52;8.80;99.90
21487;DHT22;10905;50.822;4.336;2023-12-14T09:46:18;8.80;99.90
21487;DHT22;10905;50.822;4.336;2023-12-14T09:48:46;8.80;99.90
21487;DHT22;10905;50.822;4.336;2023-12-14T09:51:13;8.90;99.90
21487;DHT22;10905;50.822;4.336;2023-12-14T09:53:40;9.00;99.90
21487;DHT22;10905;50.822;4.336;2023-12-14T09:56:06;8.80;99.90
21487;DHT22;10905;50.822;4.336;2023-12-14T09:58:32;8.70;99.90
21487;DHT22;10905;50.822;4.336;2023-12-14T10:01:02;8.70;99.90
21487;DHT22;10905;50.822;4.336;2023-12-14T10:03:30;8.60;99.90
21487;DHT22;10905;50.822;4.336;2023-12-14T10:05:59;8.50;99.90
21487;DHT22;10905;50.822;4.336;2023-12-14T10:08:27;8.50;99.90
21487;DHT22;10905;50.822;4.336;2023-12-14T10:10:54;8.60;99.90
21487;DHT22;10905;50.822;4.336;2023-12-14T10:13:44;8.50;99.90
21487;DHT22;10905;50.822;4.336;2023-12-14T10:16:09;8.50;99.90
21487;DHT22;10905;50.822;4.336;2023-12-14T10:18:34;8.50;99.90
21487;DHT22;10905;50.822;4.336;2023-12-14T10:21:01;8.70;99.90
21487;DHT22;10905;50.822;4.336;2023-12-14T10:23:28;8.80;99.90
21487;DHT22;10905;50.822;4.336;2023-12-14T10:25:53;8.80;99.90
21487;DHT22;10905;50.822;4.336;2023-12-14T10:28:19;8.90;99.90
21487;DHT22;10905;50.822;4.336;2023-12-14T10:30:45;9.10;99.90
21487;DHT22;10905;50.822;4.336;2023-12-14T10:33:10;9.30;99.90
21487;DHT22;10905;50.822;4.336;2023-12-14T10:35:36;9.40;99.90
21487;DHT22;10905;50.822;4.336;2023-12-14T10:38:04;9.40;99.90
21487;DHT22;10905;50.822;4.336;2023-12-14T10:40:31;9.20;99.90
21487;DHT22;10905;50.822;4.336;2023-12-14T10:43:00;9.20;99.90
21487;DHT22;10905;50.822;4.336;2023-12-14T10:45:32;8.90;99.90
21487;DHT22;10905;50.822;4.336;2023-12-14T10:48:00;9.00;99.90
21487;DHT22;10905;50.822;4.336;2023-12-14T10:50:29;8.90;99.90
21487;DHT22;10905;50.822;4.336;2023-12-14T10:52:57;8.90;99.90
21487;DHT22;10905;50.822;4.336;2023-12-14T10:55:38;9.10;99.90
21487;DHT22;10905;50.822;4.336;2023-12-14T10:58:07;9.00;99.90
21487;DHT22;10905;50.822;4.336;2023-12-14T11:00:33;9.00;99.90
21487;DHT22;10905;50.822;4.336;2023-12-14T11:02:59;9.20;99.90
21487;DHT22;10905;50.822;4.336;2023-12-14T11:05:27;9.30;99.90
21487;DHT22;10905;50.822;4.336;2023-12-14T11:07:55;9.50;99.90
21487;DHT22;10905;50.822;4.336;2023-12-14T11:10:40;9.50;99.90
21487;DHT22;10905;50.822;4.336;2023-12-14T11:13:08;9.50;99.90
21487;DHT22;10905;50.822;4.336;2023-12-14T11:15:39;9.70;99.90
21487;DHT22;10905;50.822;4.336;2023-12-14T11:20:55;9.60;99.90
21487;DHT22;10905;50.822;4.336;2023-12-14T11:26:04;9.70;99.90
21487;DHT22;10905;50.822;4.336;2023-12-14T11:28:40;9.70;99.90
21487;DHT22;10905;50.822;4.336;2023-12-14T11:31:12;9.70;99.90
21487;DHT22;10905;50.822;4.336;2023-12-14T11:33:38;9.70;99.90
21487;DHT22;10905;50.822;4.336;2023-12-14T11:36:04;9.70;99.90
21487;DHT22;10905;50.822;4.336;2023-12-14T11:38:31;9.80;99.90
21487;DHT22;10905;50.822;4.336;2023-12-14T11:40:58;9.80;99.90
21487;DHT22;10905;50.822;4.336;2023-12-14T11:43:24;9.80;99.90
21487;DHT22;10905;50.822;4.336;2023-12-14T11:45:52;9.70;99.90
21487;DHT22;10905;50.822;4.336;2023-12-14T11:48:18;9.70;99.90
21487;DHT22;10905;50.822;4.336;2023-12-14T11:50:45;9.70;99.90
21487;DHT22;10905;50.822;4.336;2023-12-14T11:53:12;9.60;99.90
21487;DHT22;10905;50.822;4.336;2023-12-14T11:55:40;9.70;99.90
21487;DHT22;10905;50.822;4.336;2023-12-14T11:58:07;9.70;99.90
21487;DHT22;10905;50.822;4.336;2023-12-14T12:00:33;9.80;99.90
21487;DHT22;10905;50.822;4.336;2023-12-14T12:03:08;9.80;99.90
21487;DHT22;10905;50.822;4.336;2023-12-14T12:05:42;9.80;99.90
21487;DHT22;10905;50.822;4.336;2023-12-14T12:08:10;9.80;99.90
21487;DHT22;10905;50.822;4.336;2023-12-14T12:10:37;9.80;99.90
21487;DHT22;10905;50.822;4.336;2023-12-14T12:13:07;9.70;99.90
21487;DHT22;10905;50.822;4.336;2023-12-14T12:15:34;9.70;99.90
21487;DHT22;10905;50.822;4.336;2023-12-14T12:18:16;9.70;99.90
21487;DHT22;10905;50.822;4.336;2023-12-14T12:20:42;9.60;99.90
21487;DHT22;10905;50.822;4.336;2023-12-14T12:23:08;9.50;99.90
21487;DHT22;10905;50.822;4.336;2023-12-14T12:25:34;9.60;99.90
21487;DHT22;10905;50.822;4.336;2023-12-14T12:28:01;9.60;99.90
21487;DHT22;10905;50.822;4.336;2023-12-14T12:30:27;9.60;99.90
21487;DHT22;10905;50.822;4.336;2023-12-14T12:32:53;9.60;99.90
21487;DHT22;10905;50.822;4.336;2023-12-14T12:35:22;9.50;99.90
21487;DHT22;10905;50.822;4.336;2023-12-14T12:37:48;9.60;99.90
21487;DHT22;10905;50.822;4.336;2023-12-14T12:40:21;9.50;99.90
21487;DHT22;10905;50.822;4.336;2023-12-14T12:42:48;9.60;99.90
21487;DHT22;10905;50.822;4.336;2023-12-14T12:45:15;9.50;99.90
21487;DHT22;10905;50.822;4.336;2023-12-14T12:47:43;9.40;99.90
21487;DHT22;10905;50.822;4.336;2023-12-14T12:50:09;9.40;99.90
21487;DHT22;10905;50.822;4.336;2023-12-14T12:52:35;9.40;99.90
21487;DHT22;10905;50.822;4.336;2023-12-14T12:55:01;9.40;99.90
21487;DHT22;10905;50.822;4.336;2023-12-14T12:57:27;9.50;99.90
21487;DHT22;10905;50.822;4.336;2023-12-14T12:59:52;9.60;99.90
21487;DHT22;10905;50.822;4.336;2023-12-14T13:02:18;9.50;99.90
21487;DHT22;10905;50.822;4.336;2023-12-14T13:04:44;9.50;99.90
21487;DHT22;10905;50.822;4.336;2023-12-14T13:07:09;9.50;99.90
21487;DHT22;10905;50.822;4.336;2023-12-14T13:09:37;9.70;99.90
21487;DHT22;10905;50.822;4.336;2023-12-14T13:12:04;9.60;99.90
21487;DHT22;10905;50.822;4.336;2023-12-14T13:14:29;9.70;99.90
21487;DHT22;10905;50.822;4.336;2023-12-14T13:16:56;9.70;99.90
21487;DHT22;10905;50.822;4.336;2023-12-14T13:19:23;9.70;99.90
21487;DHT22;10905;50.822;4.336;2023-12-14T13:21:49;9.70;99.90
21487;DHT22;10905;50.822;4.336;2023-12-14T13:24:15;9.70;99.90
21487;DHT22;10905;50.822;4.336;2023-12-14T13:26:40;9.70;99.90
21487;DHT22;10905;50.822;4.336;2023-12-14T13:29:06;9.60;99.90
21487;DHT22;10905;50.822;4.336;2023-12-14T13:31:32;9.60;99.90
21487;DHT22;10905;50.822;4.336;2023-12-14T13:33:57;9.60;99.90
21487;DHT22;10905;50.822;4.336;2023-12-14T13:36:23;9.70;99.90
21487;DHT22;10905;50.822;4.336;2023-12-14T13:38:49;9.70;99.90
21487;DHT22;10905;50.822;4.336;2023-12-14T13:41:14;9.70;99.90
21487;DHT22;10905;50.822;4.336;2023-12-14T13:43:40;9.80;99.90
21487;DHT22;10905;50.822;4.336;2023-12-14T13:46:06;9.80;99.90
21487;DHT22;10905;50.822;4.336;2023-12-14T13:48:31;9.90;99.90
21487;DHT22;10905;50.822;4.336;2023-12-14T13:50:57;9.90;99.90
21487;DHT22;10905;50.822;4.336;2023-12-14T13:53:23;9.90;99.90
21487;DHT22;10905;50.822;4.336;2023-12-14T13:55:49;9.80;99.90
21487;DHT22;10905;50.822;4.336;2023-12-14T13:58:15;9.90;99.90
21487;DHT22;10905;50.822;4.336;2023-12-14T14:00:41;9.90;99.90
21487;DHT22;10905;50.822;4.336;2023-12-14T14:03:09;9.90;99.90
21487;DHT22;10905;50.822;4.336;2023-12-14T14:05:35;9.80;99.90
21487;DHT22;10905;50.822;4.336;2023-12-14T14:08:00;10.00;99.90
21487;DHT22;10905;50.822;4.336;2023-12-14T14:10:26;10.00;99.90
21487;DHT22;10905;50.822;4.336;2023-12-14T14:12:52;10.00;99.90
21487;DHT22;10905;50.822;4.336;2023-12-14T14:15:18;10.00;99.90
21487;DHT22;10905;50.822;4.336;2023-12-14T14:17:45;10.00;99.90
21487;DHT22;10905;50.822;4.336;2023-12-14T14:20:13;9.90;99.90
21487;DHT22;10905;50.822;4.336;2023-12-14T14:22:39;9.90;99.90
21487;DHT22;10905;50.822;4.336;2023-12-14T14:25:05;9.80;99.90
21487;DHT22;10905;50.822;4.336;2023-12-14T14:27:32;9.90;99.90
21487;DHT22;10905;50.822;4.336;2023-12-14T14:29:58;9.90;99.90
21487;DHT22;10905;50.822;4.336;2023-12-14T14:32:24;10.00;99.90
21487;DHT22;10905;50.822;4.336;2023-12-14T14:34:49;10.00;99.90
21487;DHT22;10905;50.822;4.336;2023-12-14T14:37:16;9.80;99.90
21487;DHT22;10905;50.822;4.336;2023-12-14T14:39:42;9.90;99.90
21487;DHT22;10905;50.822;4.336;2023-12-14T14:42:09;9.90;99.90
21487;DHT22;10905;50.822;4.336;2023-12-14T14:44:35;9.80;99.90
21487;DHT22;10905;50.822;4.336;2023-12-14T14:47:02;9.70;99.90
21487;DHT22;10905;50.822;4.336;2023-12-14T14:49:27;9.70;99.90
21487;DHT22;10905;50.822;4.336;2023-12-14T14:51:53;9.70;99.90
21487;DHT22;10905;50.822;4.336;2023-12-14T14:54:19;9.70;99.90
21487;DHT22;10905;50.822;4.336;2023-12-14T14:56:45;9.90;99.90
21487;DHT22;10905;50.822;4.336;2023-12-14T14:59:11;9.90;99.90
21487;DHT22;10905;50.822;4.336;2023-12-14T15:01:37;9.70;99.90
21487;DHT22;10905;50.822;4.336;2023-12-14T15:04:03;9.50;99.90
21487;DHT22;10905;50.822;4.336;2023-12-14T15:06:29;9.60;99.90
21487;DHT22;10905;50.822;4.336;2023-12-14T15:08:54;9.50;99.90
21487;DHT22;10905;50.822;4.336;2023-12-14T15:11:20;9.50;99.90
21487;DHT22;10905;50.822;4.336;2023-12-14T15:13:46;9.40;99.90
21487;DHT22;10905;50.822;4.336;2023-12-14T15:16:11;9.40;99.90
21487;DHT22;10905;50.822;4.336;2023-12-14T15:18:38;9.40;99.90
21487;DHT22;10905;50.822;4.336;2023-12-14T15:21:10;9.30;99.90
21487;DHT22;10905;50.822;4.336;2023-12-14T15:23:35;9.40;99.90
21487;DHT22;10905;50.822;4.336;2023-12-14T15:26:02;9.40;99.90
21487;DHT22;10905;50.822;4.336;2023-12-14T15:28:28;9.40;99.90
21487;DHT22;10905;50.822;4.336;2023-12-14T15:30:54;9.30;99.90
21487;DHT22;10905;50.822;4.336;2023-12-14T15:33:19;9.30;99.90
21487;DHT22;10905;50.822;4.336;2023-12-14T15:35:46;9.30;99.90
21487;DHT22;10905;50.822;4.336;2023-12-14T15:38:12;9.20;99.90
21487;DHT22;10905;50.822;4.336;2023-12-14T15:40:38;9.10;99.90
21487;DHT22;10905;50.822;4.336;2023-12-14T15:43:04;9.20;99.90
21487;DHT22;10905;50.822;4.336;2023-12-14T15:45:30;9.30;99.90